sensor_id;sensor_type;location;lat;lon;timestamp;pressure;altitude;pressure_sealevel;temperature;humidity
65832;BME280;52593;42.648;23.332;2023-05-23T00:02:04;94442.50;;;10.10;100.00
65832;BME280;52593;42.648;23.332;2023-05-23T00:04:33;94444.91;;;10.05;100.00
65832;BME280;52593;42.648;23.332;2023-05-23T00:07:00;94431.25;;;9.99;100.00
65832;BME280;52593;42.648;23.332;2023-05-23T00:09:25;94428.56;;;9.99;100.00
65832;BME280;52593;42.648;23.332;2023-05-23T00:11:50;94430.06;;;10.02;100.00
65832;BME280;52593;42.648;23.332;2023-05-23T00:14:16;94431.41;;;9.98;100.00
65832;BME280;52593;42.648;23.332;2023-05-23T00:16:43;94426.28;;;10.11;100.00
65832;BME280;52593;42.648;23.332;2023-05-23T00:19:12;94428.88;;;10.05;100.00
65832;BME280;52593;42.648;23.332;2023-05-23T00:21:45;94425.34;;;10.04;100.00
65832;BME280;52593;42.648;23.332;2023-05-23T00:24:14;94420.72;;;9.98;100.00
65832;BME280;52593;42.648;23.332;2023-05-23T00:26:43;94430.50;;;10.06;100.00
65832;BME280;52593;42.648;23.332;2023-05-23T00:29:09;94423.03;;;10.01;100.00
65832;BME280;52593;42.648;23.332;2023-05-23T00:31:40;94417.88;;;9.99;100.00
65832;BME280;52593;42.648;23.332;2023-05-23T00:34:05;94419.09;;;9.97;100.00
65832;BME280;52593;42.648;23.332;2023-05-23T00:36:30;94419.09;;;9.97;100.00
65832;BME280;52593;42.648;23.332;2023-05-23T00:39:01;94423.13;;;9.93;100.00
65832;BME280;52593;42.648;23.332;2023-05-23T00:41:26;94419.81;;;9.91;100.00
65832;BME280;52593;42.648;23.332;2023-05-23T00:43:55;94424.03;;;9.85;100.00
65832;BME280;52593;42.648;23.332;2023-05-23T00:46:22;94427.91;;;9.82;100.00
65832;BME280;52593;42.648;23.332;2023-05-23T00:48:47;94421.44;;;9.77;100.00
65832;BME280;52593;42.648;23.332;2023-05-23T00:51:13;94419.78;;;9.76;100.00
65832;BME280;52593;42.648;23.332;2023-05-23T00:53:39;94422.16;;;9.71;100.00
65832;BME280;52593;42.648;23.332;2023-05-23T00:56:04;94424.19;;;9.69;100.00
65832;BME280;52593;42.648;23.332;2023-05-23T00:58:30;94430.72;;;9.66;100.00
65832;BME280;52593;42.648;23.332;2023-05-23T01:00:56;94430.34;;;9.69;100.00
65832;BME280;52593;42.648;23.332;2023-05-23T01:03:24;94421.06;;;9.65;100.00
65832;BME280;52593;42.648;23.332;2023-05-23T01:05:53;94422.25;;;9.62;100.00
65832;BME280;52593;42.648;23.332;2023-05-23T01:08:18;94425.91;;;9.61;100.00
65832;BME280;52593;42.648;23.332;2023-05-23T01:10:44;94426.75;;;9.62;100.00
65832;BME280;52593;42.648;23.332;2023-05-23T01:15:45;94436.78;;;9.60;100.00
65832;BME280;52593;42.648;23.332;2023-05-23T01:18:23;94432.66;;;9.57;100.00
65832;BME280;52593;42.648;23.332;2023-05-23T01:21:02;94428.38;;;9.48;100.00
65832;BME280;52593;42.648;23.332;2023-05-23T01:29:10;94423.09;;;9.40;100.00
65832;BME280;52593;42.648;23.332;2023-05-23T01:31:40;94428.06;;;9.43;100.00
65832;BME280;52593;42.648;23.332;2023-05-23T01:34:08;94438.72;;;9.51;100.00
65832;BME280;52593;42.648;23.332;2023-05-23T01:36:41;94428.38;;;9.48;100.00
65832;BME280;52593;42.648;23.332;2023-05-23T01:39:07;94427.34;;;9.49;100.00
65832;BME280;52593;42.648;23.332;2023-05-23T01:41:32;94427.50;;;9.56;100.00
65832;BME280;52593;42.648;23.332;2023-05-23T01:43:58;94425.19;;;9.53;100.00
65832;BME280;52593;42.648;23.332;2023-05-23T01:46:23;94417.03;;;9.46;100.00
65832;BME280;52593;42.648;23.332;2023-05-23T01:48:52;94421.28;;;9.40;100.00
65832;BME280;52593;42.648;23.332;2023-05-23T01:51:20;94418.44;;;9.42;100.00
65832;BME280;52593;42.648;23.332;2023-05-23T01:53:46;94415.25;;;9.38;100.00
65832;BME280;52593;42.648;23.332;2023-05-23T01:56:12;94408.47;;;9.36;100.00
65832;BME280;52593;42.648;23.332;2023-05-23T01:58:38;94411.50;;;9.33;100.00
65832;BME280;52593;42.648;23.332;2023-05-23T02:01:03;94417.06;;;9.23;100.00
65832;BME280;52593;42.648;23.332;2023-05-23T02:03:29;94416.22;;;9.22;100.00
65832;BME280;52593;42.648;23.332;2023-05-23T02:05:54;94413.19;;;9.25;100.00
65832;BME280;52593;42.648;23.332;2023-05-23T02:08:20;94413.19;;;9.25;100.00
65832;BME280;52593;42.648;23.332;2023-05-23T02:10:45;94416.47;;;9.36;100.00
65832;BME280;52593;42.648;23.332;2023-05-23T02:13:11;94422.34;;;9.31;100.00
65832;BME280;52593;42.648;23.332;2023-05-23T02:15:36;94426.38;;;9.27;100.00
65832;BME280;52593;42.648;23.332;2023-05-23T02:18:01;94421.38;;;9.24;100.00
65832;BME280;52593;42.648;23.332;2023-05-23T02:20:27;94419.38;;;9.26;100.00
65832;BME280;52593;42.648;23.332;2023-05-23T02:22:52;94419.19;;;9.27;100.00
65832;BME280;52593;42.648;23.332;2023-05-23T02:25:18;94420.41;;;9.25;100.00
65832;BME280;52593;42.648;23.332;2023-05-23T02:27:43;94412.25;;;9.18;100.00
65832;BME280;52593;42.648;23.332;2023-05-23T02:30:09;94418.75;;;9.16;100.00
65832;BME280;52593;42.648;23.332;2023-05-23T02:32:34;94416.28;;;9.14;100.00
65832;BME280;52593;42.648;23.332;2023-05-23T02:35:01;94415.00;;;9.10;100.00
65832;BME280;52593;42.648;23.332;2023-05-23T02:37:27;94410.81;;;9.07;100.00
65832;BME280;52593;42.648;23.332;2023-05-23T02:39:52;94401.69;;;9.02;100.00
65832;BME280;52593;42.648;23.332;2023-05-23T02:42:18;94407.34;;;9.07;100.00
65832;BME280;52593;42.648;23.332;2023-05-23T02:44:43;94406.56;;;8.98;100.00
65832;BME280;52593;42.648;23.332;2023-05-23T02:47:09;94391.53;;;8.97;100.00
65832;BME280;52593;42.648;23.332;2023-05-23T02:49:34;94400.97;;;9.08;100.00
65832;BME280;52593;42.648;23.332;2023-05-23T02:52:00;94401.31;;;9.05;100.00
65832;BME280;52593;42.648;23.332;2023-05-23T02:54:25;94404.53;;;9.00;100.00
65832;BME280;52593;42.648;23.332;2023-05-23T02:56:51;94398.44;;;8.91;100.00
65832;BME280;52593;42.648;23.332;2023-05-23T02:59:17;94405.91;;;8.96;100.00
65832;BME280;52593;42.648;23.332;2023-05-23T03:01:43;94398.91;;;8.95;100.00
65832;BME280;52593;42.648;23.332;2023-05-23T03:04:08;94397.38;;;9.01;100.00
65832;BME280;52593;42.648;23.332;2023-05-23T03:06:34;94402.63;;;8.86;100.00
65832;BME280;52593;42.648;23.332;2023-05-23T03:09:01;94409.41;;;8.97;100.00
65832;BME280;52593;42.648;23.332;2023-05-23T03:11:26;94406.72;;;8.97;100.00
65832;BME280;52593;42.648;23.332;2023-05-23T03:13:53;94409.47;;;8.88;100.00
65832;BME280;52593;42.648;23.332;2023-05-23T03:16:19;94402.16;;;8.82;100.00
65832;BME280;52593;42.648;23.332;2023-05-23T03:18:44;94407.00;;;8.79;100.00
65832;BME280;52593;42.648;23.332;2023-05-23T03:21:09;94406.88;;;8.72;100.00
65832;BME280;52593;42.648;23.332;2023-05-23T03:23:35;94405.28;;;8.63;100.00
65832;BME280;52593;42.648;23.332;2023-05-23T03:26:01;94410.25;;;8.66;100.00
65832;BME280;52593;42.648;23.332;2023-05-23T03:28:27;94416.31;;;8.83;100.00
65832;BME280;52593;42.648;23.332;2023-05-23T03:30:53;94417.47;;;8.88;100.00
65832;BME280;52593;42.648;23.332;2023-05-23T03:33:18;94422.81;;;8.88;100.00
65832;BME280;52593;42.648;23.332;2023-05-23T03:35:43;94418.47;;;8.87;100.00
65832;BME280;52593;42.648;23.332;2023-05-23T03:38:09;94424.34;;;8.83;100.00
65832;BME280;52593;42.648;23.332;2023-05-23T03:40:34;94423.34;;;8.84;100.00
65832;BME280;52593;42.648;23.332;2023-05-23T03:43:06;94430.50;;;8.83;100.00
65832;BME280;52593;42.648;23.332;2023-05-23T03:45:32;94431.00;;;8.87;100.00
65832;BME280;52593;42.648;23.332;2023-05-23T03:47:58;94435.63;;;8.93;100.00
65832;BME280;52593;42.648;23.332;2023-05-23T03:50:24;94429.03;;;9.04;100.00
65832;BME280;52593;42.648;23.332;2023-05-23T03:52:50;94425.31;;;9.13;100.00
65832;BME280;52593;42.648;23.332;2023-05-23T03:55:15;94429.09;;;9.19;100.00
65832;BME280;52593;42.648;23.332;2023-05-23T03:57:40;94431.94;;;9.17;100.00
65832;BME280;52593;42.648;23.332;2023-05-23T04:00:06;94438.94;;;9.18;100.00
65832;BME280;52593;42.648;23.332;2023-05-23T04:02:37;94446.13;;;9.18;100.00
65832;BME280;52593;42.648;23.332;2023-05-23T04:05:06;94438.91;;;9.26;100.00
65832;BME280;52593;42.648;23.332;2023-05-23T04:07:32;94434.66;;;9.32;100.00
65832;BME280;52593;42.648;23.332;2023-05-23T04:10:01;94444.78;;;9.45;100.00
65832;BME280;52593;42.648;23.332;2023-05-23T04:12:27;94434.00;;;9.53;100.00
65832;BME280;52593;42.648;23.332;2023-05-23T04:14:54;94428.22;;;9.64;100.00
65832;BME280;52593;42.648;23.332;2023-05-23T04:17:20;94431.38;;;9.68;100.00
65832;BME280;52593;42.648;23.332;2023-05-23T04:19:46;94433.19;;;9.68;100.00
65832;BME280;52593;42.648;23.332;2023-05-23T04:22:12;94425.69;;;9.71;100.00
65832;BME280;52593;42.648;23.332;2023-05-23T04:24:37;94432.28;;;9.75;100.00
65832;BME280;52593;42.648;23.332;2023-05-23T04:27:03;94432.06;;;9.85;100.00
65832;BME280;52593;42.648;23.332;2023-05-23T04:29:28;94435.31;;;9.95;100.00
65832;BME280;52593;42.648;23.332;2023-05-23T04:31:56;94422.41;;;9.99;100.00
65832;BME280;52593;42.648;23.332;2023-05-23T04:34:21;94425.72;;;10.01;100.00
65832;BME280;52593;42.648;23.332;2023-05-23T04:36:47;94436.06;;;10.19;100.00
65832;BME280;52593;42.648;23.332;2023-05-23T04:39:13;94431.25;;;10.29;100.00
65832;BME280;52593;42.648;23.332;2023-05-23T04:41:40;94439.28;;;10.29;100.00
65832;BME280;52593;42.648;23.332;2023-05-23T04:44:06;94434.50;;;10.25;100.00
65832;BME280;52593;42.648;23.332;2023-05-23T04:46:31;94424.63;;;10.25;100.00
65832;BME280;52593;42.648;23.332;2023-05-23T04:48:56;94428.41;;;10.31;100.00
65832;BME280;52593;42.648;23.332;2023-05-23T04:51:24;94434.56;;;10.31;100.00
65832;BME280;52593;42.648;23.332;2023-05-23T04:53:50;94439.47;;;10.43;100.00
65832;BME280;52593;42.648;23.332;2023-05-23T04:56:15;94447.50;;;10.58;100.00
65832;BME280;52593;42.648;23.332;2023-05-23T04:58:42;94443.38;;;10.55;100.00
65832;BME280;52593;42.648;23.332;2023-05-23T05:01:10;94441.78;;;10.31;100.00
65832;BME280;52593;42.648;23.332;2023-05-23T05:03:35;94453.16;;;10.33;100.00
65832;BME280;52593;42.648;23.332;2023-05-23T05:06:01;94448.34;;;10.43;100.00
65832;BME280;52593;42.648;23.332;2023-05-23T05:08:27;94453.16;;;10.48;100.00
65832;BME280;52593;42.648;23.332;2023-05-23T05:10:53;94453.59;;;10.51;100.00
65832;BME280;52593;42.648;23.332;2023-05-23T05:13:19;94459.31;;;10.48;100.00
65832;BME280;52593;42.648;23.332;2023-05-23T05:15:45;94461.63;;;10.51;100.00
65832;BME280;52593;42.648;23.332;2023-05-23T05:18:10;94461.25;;;10.55;100.00
65832;BME280;52593;42.648;23.332;2023-05-23T05:20:36;94453.78;;;10.50;100.00
65832;BME280;52593;42.648;23.332;2023-05-23T05:23:01;94459.06;;;10.58;100.00
65832;BME280;52593;42.648;23.332;2023-05-23T05:25:27;94449.19;;;10.59;100.00
65832;BME280;52593;42.648;23.332;2023-05-23T05:27:56;94456.53;;;10.71;100.00
65832;BME280;52593;42.648;23.332;2023-05-23T05:30:22;94453.97;;;10.63;100.00
65832;BME280;52593;42.648;23.332;2023-05-23T05:32:47;94458.75;;;10.83;100.00
65832;BME280;52593;42.648;23.332;2023-05-23T05:35:12;94451.59;;;10.90;100.00
65832;BME280;52593;42.648;23.332;2023-05-23T05:37:38;94463.22;;;10.97;100.00
65832;BME280;52593;42.648;23.332;2023-05-23T05:40:04;94455.44;;;11.02;100.00
65832;BME280;52593;42.648;23.332;2023-05-23T05:42:31;94463.47;;;11.02;100.00
65832;BME280;52593;42.648;23.332;2023-05-23T05:44:57;94460.94;;;10.94;100.00
65832;BME280;52593;42.648;23.332;2023-05-23T05:47:22;94457.50;;;11.00;100.00
65832;BME280;52593;42.648;23.332;2023-05-23T05:49:48;94464.13;;;11.19;100.00
65832;BME280;52593;42.648;23.332;2023-05-23T05:52:13;94459.53;;;11.35;100.00
65832;BME280;52593;42.648;23.332;2023-05-23T05:54:38;94463.59;;;11.31;100.00
65832;BME280;52593;42.648;23.332;2023-05-23T05:57:04;94465.56;;;11.43;100.00
65832;BME280;52593;42.648;23.332;2023-05-23T05:59:29;94470.31;;;11.63;100.00
65832;BME280;52593;42.648;23.332;2023-05-23T06:01:55;94462.63;;;11.82;100.00
65832;BME280;52593;42.648;23.332;2023-05-23T06:04:20;94459.56;;;11.85;100.00
65832;BME280;52593;42.648;23.332;2023-05-23T06:06:46;94460.47;;;11.92;100.00
65832;BME280;52593;42.648;23.332;2023-05-23T06:09:11;94465.50;;;12.02;100.00
65832;BME280;52593;42.648;23.332;2023-05-23T06:11:37;94461.72;;;12.18;100.00
65832;BME280;52593;42.648;23.332;2023-05-23T06:14:06;94457.47;;;12.30;100.00
65832;BME280;52593;42.648;23.332;2023-05-23T06:16:31;94463.16;;;12.20;100.00
65832;BME280;52593;42.648;23.332;2023-05-23T06:18:57;94461.47;;;12.41;98.83
65832;BME280;52593;42.648;23.332;2023-05-23T06:21:22;94468.44;;;12.35;99.38
65832;BME280;52593;42.648;23.332;2023-05-23T06:23:48;94467.94;;;12.25;99.03
65832;BME280;52593;42.648;23.332;2023-05-23T06:26:13;94456.22;;;12.32;100.00
65832;BME280;52593;42.648;23.332;2023-05-23T06:28:38;94454.06;;;12.49;99.48
65832;BME280;52593;42.648;23.332;2023-05-23T06:31:04;94465.72;;;12.63;98.81
65832;BME280;52593;42.648;23.332;2023-05-23T06:33:31;94466.22;;;12.80;97.63
65832;BME280;52593;42.648;23.332;2023-05-23T06:35:56;94466.91;;;12.96;96.55
65832;BME280;52593;42.648;23.332;2023-05-23T06:38:22;94465.50;;;13.07;95.35
65832;BME280;52593;42.648;23.332;2023-05-23T06:40:47;94471.50;;;13.15;93.92
65832;BME280;52593;42.648;23.332;2023-05-23T06:43:12;94471.34;;;13.24;94.50
65832;BME280;52593;42.648;23.332;2023-05-23T06:45:38;94462.56;;;12.95;93.81
65832;BME280;52593;42.648;23.332;2023-05-23T06:48:03;94467.81;;;12.68;96.18
65832;BME280;52593;42.648;23.332;2023-05-23T06:50:29;94467.06;;;12.46;97.40
65832;BME280;52593;42.648;23.332;2023-05-23T06:52:54;94462.63;;;12.31;98.68
65832;BME280;52593;42.648;23.332;2023-05-23T06:55:20;94454.63;;;12.38;99.20
65832;BME280;52593;42.648;23.332;2023-05-23T06:57:46;94454.22;;;12.41;99.79
65832;BME280;52593;42.648;23.332;2023-05-23T07:00:12;94457.69;;;12.35;100.00
65832;BME280;52593;42.648;23.332;2023-05-23T07:02:40;94449.09;;;12.46;100.00
65832;BME280;52593;42.648;23.332;2023-05-23T07:05:06;94444.84;;;12.59;100.00
65832;BME280;52593;42.648;23.332;2023-05-23T07:07:31;94443.78;;;12.60;99.02
65832;BME280;52593;42.648;23.332;2023-05-23T07:09:57;94435.84;;;12.80;99.24
65832;BME280;52593;42.648;23.332;2023-05-23T07:12:22;94441.88;;;12.95;97.12
65832;BME280;52593;42.648;23.332;2023-05-23T07:14:48;94442.53;;;12.97;97.02
65832;BME280;52593;42.648;23.332;2023-05-23T07:17:13;94439.66;;;12.99;97.94
65832;BME280;52593;42.648;23.332;2023-05-23T07:19:38;94436.97;;;13.12;99.13
65832;BME280;52593;42.648;23.332;2023-05-23T07:22:04;94439.09;;;13.30;99.61
65832;BME280;52593;42.648;23.332;2023-05-23T07:24:29;94434.22;;;13.41;98.44
65832;BME280;52593;42.648;23.332;2023-05-23T07:26:55;94421.22;;;13.58;95.90
65832;BME280;52593;42.648;23.332;2023-05-23T07:29:20;94426.38;;;13.59;94.54
65832;BME280;52593;42.648;23.332;2023-05-23T07:31:45;94420.16;;;13.72;94.97
65832;BME280;52593;42.648;23.332;2023-05-23T07:34:11;94421.84;;;13.86;93.39
65832;BME280;52593;42.648;23.332;2023-05-23T07:36:36;94429.69;;;14.08;90.98
65832;BME280;52593;42.648;23.332;2023-05-23T07:39:05;94414.38;;;14.22;90.60
65832;BME280;52593;42.648;23.332;2023-05-23T07:41:31;94415.59;;;14.33;90.95
65832;BME280;52593;42.648;23.332;2023-05-23T07:43:56;94412.88;;;14.39;89.93
65832;BME280;52593;42.648;23.332;2023-05-23T07:46:21;94412.47;;;14.62;89.60
65832;BME280;52593;42.648;23.332;2023-05-23T07:48:47;94402.69;;;14.68;89.57
65832;BME280;52593;42.648;23.332;2023-05-23T07:51:13;94402.03;;;14.73;88.47
65832;BME280;52593;42.648;23.332;2023-05-23T07:53:38;94402.59;;;14.88;88.86
65832;BME280;52593;42.648;23.332;2023-05-23T07:56:05;94406.28;;;15.01;87.46
65832;BME280;52593;42.648;23.332;2023-05-23T07:58:30;94406.84;;;15.16;86.36
65832;BME280;52593;42.648;23.332;2023-05-23T08:00:56;94403.84;;;15.31;84.85
65832;BME280;52593;42.648;23.332;2023-05-23T08:03:22;94401.44;;;15.55;83.78
65832;BME280;52593;42.648;23.332;2023-05-23T08:05:48;94403.75;;;15.76;82.77
65832;BME280;52593;42.648;23.332;2023-05-23T08:08:14;94400.22;;;15.76;82.90
65832;BME280;52593;42.648;23.332;2023-05-23T08:10:39;94404.06;;;15.93;81.93
65832;BME280;52593;42.648;23.332;2023-05-23T08:13:04;94402.47;;;16.11;82.35
65832;BME280;52593;42.648;23.332;2023-05-23T08:15:31;94395.44;;;16.10;81.87
65832;BME280;52593;42.648;23.332;2023-05-23T08:17:58;94399.06;;;16.22;80.61
65832;BME280;52593;42.648;23.332;2023-05-23T08:20:25;94394.16;;;16.31;80.66
65832;BME280;52593;42.648;23.332;2023-05-23T08:22:57;94391.97;;;16.46;79.65
65832;BME280;52593;42.648;23.332;2023-05-23T08:25:22;94394.06;;;16.63;80.06
65832;BME280;52593;42.648;23.332;2023-05-23T08:27:49;94385.22;;;16.74;77.07
65832;BME280;52593;42.648;23.332;2023-05-23T08:30:14;94394.06;;;17.00;76.25
65832;BME280;52593;42.648;23.332;2023-05-23T08:32:40;94395.72;;;17.01;75.73
65832;BME280;52593;42.648;23.332;2023-05-23T08:35:05;94391.50;;;17.05;73.73
65832;BME280;52593;42.648;23.332;2023-05-23T08:37:31;94390.66;;;17.04;73.47
65832;BME280;52593;42.648;23.332;2023-05-23T08:39:56;94386.78;;;17.00;75.21
65832;BME280;52593;42.648;23.332;2023-05-23T08:42:22;94389.69;;;17.17;74.86
65832;BME280;52593;42.648;23.332;2023-05-23T08:44:47;94387.44;;;17.14;72.97
65832;BME280;52593;42.648;23.332;2023-05-23T08:47:15;94385.22;;;17.41;73.56
65832;BME280;52593;42.648;23.332;2023-05-23T08:49:42;94389.00;;;17.64;72.22
65832;BME280;52593;42.648;23.332;2023-05-23T08:52:10;94393.19;;;17.78;71.61
65832;BME280;52593;42.648;23.332;2023-05-23T08:54:36;94387.59;;;17.92;72.48
65832;BME280;52593;42.648;23.332;2023-05-23T08:57:02;94388.66;;;17.91;67.73
65832;BME280;52593;42.648;23.332;2023-05-23T08:59:28;94381.34;;;17.91;67.55
65832;BME280;52593;42.648;23.332;2023-05-23T09:01:54;94386.28;;;17.94;68.96
65832;BME280;52593;42.648;23.332;2023-05-23T09:04:21;94385.94;;;18.14;69.32
65832;BME280;52593;42.648;23.332;2023-05-23T09:06:46;94377.03;;;18.26;64.59
65832;BME280;52593;42.648;23.332;2023-05-23T09:09:11;94377.47;;;18.34;68.79
65832;BME280;52593;42.648;23.332;2023-05-23T09:11:37;94382.19;;;18.39;66.78
65832;BME280;52593;42.648;23.332;2023-05-23T09:14:03;94373.00;;;18.64;64.13
65832;BME280;52593;42.648;23.332;2023-05-23T09:16:32;94377.47;;;18.70;60.57
65832;BME280;52593;42.648;23.332;2023-05-23T09:19:11;94371.44;;;18.92;58.36
65832;BME280;52593;42.648;23.332;2023-05-23T09:21:41;94370.50;;;19.27;56.97
65832;BME280;52593;42.648;23.332;2023-05-23T09:24:06;94371.16;;;19.63;56.36
65832;BME280;52593;42.648;23.332;2023-05-23T09:26:32;94366.84;;;19.50;52.60
65832;BME280;52593;42.648;23.332;2023-05-23T09:28:59;94366.69;;;19.56;54.88
65832;BME280;52593;42.648;23.332;2023-05-23T09:31:27;94367.44;;;19.69;52.06
65832;BME280;52593;42.648;23.332;2023-05-23T09:33:53;94369.09;;;19.70;52.67
65832;BME280;52593;42.648;23.332;2023-05-23T09:36:18;94371.09;;;19.74;50.12
65832;BME280;52593;42.648;23.332;2023-05-23T09:38:45;94365.69;;;19.91;53.38
65832;BME280;52593;42.648;23.332;2023-05-23T09:41:11;94364.97;;;19.96;51.98
65832;BME280;52593;42.648;23.332;2023-05-23T09:43:50;94361.66;;;19.77;49.70
65832;BME280;52593;42.648;23.332;2023-05-23T09:46:20;94362.56;;;19.83;52.11
65832;BME280;52593;42.648;23.332;2023-05-23T09:48:51;94357.97;;;19.83;49.78
65832;BME280;52593;42.648;23.332;2023-05-23T09:51:19;94354.84;;;20.08;49.01
65832;BME280;52593;42.648;23.332;2023-05-23T09:53:50;94346.91;;;20.24;50.33
65832;BME280;52593;42.648;23.332;2023-05-23T09:56:17;94349.97;;;20.10;47.71
65832;BME280;52593;42.648;23.332;2023-05-23T09:58:47;94344.59;;;20.33;49.53
65832;BME280;52593;42.648;23.332;2023-05-23T10:01:13;94346.25;;;20.17;47.52
65832;BME280;52593;42.648;23.332;2023-05-23T10:03:49;94337.97;;;20.23;45.78
65832;BME280;52593;42.648;23.332;2023-05-23T10:06:28;94336.03;;;20.41;47.15
65832;BME280;52593;42.648;23.332;2023-05-23T10:08:58;94338.59;;;20.47;46.14
65832;BME280;52593;42.648;23.332;2023-05-23T10:14:05;94343.06;;;20.76;45.69
65832;BME280;52593;42.648;23.332;2023-05-23T10:16:46;94334.34;;;20.74;44.55
65832;BME280;52593;42.648;23.332;2023-05-23T10:21:57;94341.22;;;21.26;46.28
65832;BME280;52593;42.648;23.332;2023-05-23T10:24:23;94337.22;;;21.33;44.79
65832;BME280;52593;42.648;23.332;2023-05-23T10:26:49;94334.63;;;21.49;43.70
65832;BME280;52593;42.648;23.332;2023-05-23T10:29:15;94342.06;;;21.31;43.71
65832;BME280;52593;42.648;23.332;2023-05-23T10:31:40;94333.47;;;21.40;43.83
65832;BME280;52593;42.648;23.332;2023-05-23T10:34:16;94334.63;;;21.49;45.18
65832;BME280;52593;42.648;23.332;2023-05-23T10:36:50;94323.81;;;21.81;42.36
65832;BME280;52593;42.648;23.332;2023-05-23T10:42:48;94323.94;;;21.97;42.45
65832;BME280;52593;42.648;23.332;2023-05-23T10:45:21;94325.56;;;21.98;41.68
65832;BME280;52593;42.648;23.332;2023-05-23T10:47:48;94319.22;;;21.87;39.39
65832;BME280;52593;42.648;23.332;2023-05-23T10:50:32;94320.16;;;21.70;38.75
65832;BME280;52593;42.648;23.332;2023-05-23T10:53:02;94318.34;;;21.81;40.64
65832;BME280;52593;42.648;23.332;2023-05-23T10:55:35;94318.91;;;21.83;39.24
65832;BME280;52593;42.648;23.332;2023-05-23T10:58:20;94315.53;;;21.71;39.10
65832;BME280;52593;42.648;23.332;2023-05-23T11:00:58;94321.56;;;22.05;40.84
65832;BME280;52593;42.648;23.332;2023-05-23T11:03:48;94307.59;;;22.34;40.81
65832;BME280;52593;42.648;23.332;2023-05-23T11:09:05;94304.50;;;21.88;36.45
65832;BME280;52593;42.648;23.332;2023-05-23T11:11:55;94301.53;;;21.89;38.01
65832;BME280;52593;42.648;23.332;2023-05-23T11:17:28;94299.53;;;22.50;38.76
65832;BME280;52593;42.648;23.332;2023-05-23T11:19:55;94302.16;;;22.02;36.41
65832;BME280;52593;42.648;23.332;2023-05-23T11:22:26;94300.00;;;21.71;35.02
65832;BME280;52593;42.648;23.332;2023-05-23T11:24:54;94291.56;;;22.05;35.07
65832;BME280;52593;42.648;23.332;2023-05-23T11:27:36;94290.97;;;22.36;37.77
65832;BME280;52593;42.648;23.332;2023-05-23T11:30:12;94293.91;;;22.77;37.31
65832;BME280;52593;42.648;23.332;2023-05-23T11:32:38;94291.78;;;22.89;37.00
65832;BME280;52593;42.648;23.332;2023-05-23T11:35:06;94291.34;;;23.18;36.70
65832;BME280;52593;42.648;23.332;2023-05-23T11:37:32;94295.22;;;23.32;36.22
65832;BME280;52593;42.648;23.332;2023-05-23T11:39:58;94277.72;;;23.13;35.15
65832;BME280;52593;42.648;23.332;2023-05-23T11:42:24;94277.47;;;23.25;37.42
65832;BME280;52593;42.648;23.332;2023-05-23T11:44:50;94285.13;;;23.38;36.88
65832;BME280;52593;42.648;23.332;2023-05-23T11:47:16;94273.38;;;23.32;35.08
65832;BME280;52593;42.648;23.332;2023-05-23T11:49:44;94266.81;;;23.33;34.50
65832;BME280;52593;42.648;23.332;2023-05-23T11:52:11;94268.00;;;22.79;35.15
65832;BME280;52593;42.648;23.332;2023-05-23T11:54:36;94281.81;;;23.15;36.82
65832;BME280;52593;42.648;23.332;2023-05-23T11:57:04;94275.31;;;23.42;34.17
65832;BME280;52593;42.648;23.332;2023-05-23T11:59:29;94274.56;;;23.98;34.90
65832;BME280;52593;42.648;23.332;2023-05-23T12:01:55;94269.84;;;23.37;34.52
65832;BME280;52593;42.648;23.332;2023-05-23T12:04:20;94270.41;;;23.65;35.18
65832;BME280;52593;42.648;23.332;2023-05-23T12:06:47;94263.31;;;23.48;33.99
65832;BME280;52593;42.648;23.332;2023-05-23T12:09:13;94274.25;;;23.74;35.11
65832;BME280;52593;42.648;23.332;2023-05-23T12:11:40;94270.44;;;23.85;33.74
65832;BME280;52593;42.648;23.332;2023-05-23T12:14:12;94260.03;;;24.08;33.08
65832;BME280;52593;42.648;23.332;2023-05-23T12:16:38;94257.25;;;24.29;33.82
65832;BME280;52593;42.648;23.332;2023-05-23T12:19:04;94250.50;;;23.85;32.82
65832;BME280;52593;42.648;23.332;2023-05-23T12:24:13;94246.69;;;23.86;33.42
65832;BME280;52593;42.648;23.332;2023-05-23T12:26:52;94247.72;;;24.26;35.02
65832;BME280;52593;42.648;23.332;2023-05-23T12:29:30;94238.41;;;24.32;34.24
65832;BME280;52593;42.648;23.332;2023-05-23T12:31:57;94241.69;;;24.34;33.78
65832;BME280;52593;42.648;23.332;2023-05-23T12:34:23;94233.38;;;24.75;34.05
65832;BME280;52593;42.648;23.332;2023-05-23T12:36:49;94233.25;;;24.20;32.54
65832;BME280;52593;42.648;23.332;2023-05-23T12:39:27;94232.53;;;24.80;34.41
65832;BME280;52593;42.648;23.332;2023-05-23T12:41:52;94227.34;;;25.23;33.04
65832;BME280;52593;42.648;23.332;2023-05-23T12:44:20;94226.78;;;24.82;32.04
65832;BME280;52593;42.648;23.332;2023-05-23T12:46:46;94232.31;;;25.21;32.35
65832;BME280;52593;42.648;23.332;2023-05-23T12:49:12;94223.75;;;25.38;32.19
65832;BME280;52593;42.648;23.332;2023-05-23T12:51:38;94224.22;;;25.80;31.92
65832;BME280;52593;42.648;23.332;2023-05-23T12:54:04;94220.75;;;25.35;32.69
65832;BME280;52593;42.648;23.332;2023-05-23T12:56:29;94216.47;;;25.58;31.96
65832;BME280;52593;42.648;23.332;2023-05-23T12:58:55;94217.06;;;25.84;31.38
65832;BME280;52593;42.648;23.332;2023-05-23T13:01:21;94219.38;;;25.72;30.69
65832;BME280;52593;42.648;23.332;2023-05-23T13:03:46;94207.09;;;24.74;30.69
65832;BME280;52593;42.648;23.332;2023-05-23T13:06:12;94211.09;;;24.22;31.05
65832;BME280;52593;42.648;23.332;2023-05-23T13:08:37;94214.94;;;24.97;32.03
65832;BME280;52593;42.648;23.332;2023-05-23T13:11:03;94210.00;;;24.18;31.87
65832;BME280;52593;42.648;23.332;2023-05-23T13:13:29;94215.53;;;23.92;31.58